Share

Carnegie, OK (73015)

10:19 PM CDT on April 23, 2014 (GMT -0500)
Carnegie (KOKCARNE1) Elev 1358 ft | 35.14 °N, 98.60 °W | Change Station

Current weather conditions updated 2 seconds ago

Partly Cloudy
Partly Cloudy
66.0 °F
Feels Like 66.0 °F
N
22.8
Wind Variable Wind from ESE
Gusts 24.2 mph
Sunrise 6:52 AM
Sunset 8:13 PM
Moon Waning Crescent

Tomorrow is forecast to be Much Cooler than today.

Pressure 29.62 in
Visibility 10.0 miles
Clouds Few 5500 ft
Dew Point 60 °F
Humidity 82%
Rainfall 0.00 in
Snow Depth Not available.
UV 0 out of 16
Pollen 9.90 out of 12
Air Quality Not available.
Flu Activity Regional
METAR KHBR 240253Z AUTO 11015G25KT 10SM FEW055 18/16 A2966 RMK AO2 PK WND 08041/0203 WSHFT 0150 LTG DSNT NE-SE TSE48RAE17 SLP030 P0007 60062 T01780156 50004

More Conditions Fewer Conditions

Pressure 29.62 in
Visibility 10.0 miles
Clouds Few 5500 ft
Dew Point 60 °F
Humidity 82%
Rainfall 0.00 in
Snow Depth Not available.
UV 0 out of 16
Pollen 9.90 out of 12
Air Quality Not available.
Flu Activity Regional
METAR KHBR 240253Z AUTO 11015G25KT 10SM FEW055 18/16 A2966 RMK AO2 PK WND 08041/0203 WSHFT 0150 LTG DSNT NE-SE TSE48RAE17 SLP030 P0007 60062 T01780156 50004

More Conditions Fewer Conditions

10-Day Weather Forecast

Almanac

Astronomy

Apr. 23, 2014 Rise Set
Actual Time 6:52 AM CDT 8:13 PM CDT
Civil Twilight 6:25 AM CDT 8:40 PM CDT
Nautical Twilight 5:54 AM CDT 9:12 PM CDT
Astronomical Twilight 5:20 AM CDT 9:45 PM CDT
Moon 3:11 AM CDT (4/23) 2:36 PM CDT (4/23)
Length of Visible Light 14h 14m
Length of Day
13h 21m
Tomorrow will be 2m 0s longer.
Waning Crescent, 30% of the Moon is Illuminated
Today
Waning Crescent
Apr 29
New
May 6
First Quarter
May 14
Full
May 21
Last Quarter

Today's Extremes

State Highs State Lows

Community

  • Nestled In
    Nestled In
  • Stunning Sunrise
    Stunning Sunrise
  • spring flowers
    spring flowers
  • Earth Day Spectrum Ove' Blue
    Earth Day Spectrum Ove' Blue
  • BARN B&W
    BARN B&W

WunderPhotos

Upload Photos

1,704,531 photos uploaded!

WunderBlogs® & News

Nearby

Snow Depth

Station Depth Elevation
No new snow has been reported.

Coastal Water Temperatures

Place Temperature
No Stations Reporting

Earthquake Activity

City Distance Mag. Time & Date
Stillwater, Oklahoma 109 miles 2.8 5:30 PM CDT
2014-04-19
Enid, Oklahoma 112 miles 2.9 1:11 PM CDT
2014-04-19
Perry, Oklahoma 110 miles 4.0 5:43 AM CDT
2014-04-19
Stillwater, Oklahoma 109 miles 2.7 3:40 AM CDT
2014-04-19
Minimum magnitude displayed is 2.5.

Nearby Weather Stations

Station Location Temp. Dew Point Humidity Wind Precip. Elev Updated Type
Carnegie, Carnegie, OK 66.0 °F 60 °F 82% ESE  at  22.8 mph 0.00 in / hr 1358 ft 10:19 PM CDT Rapid Fire
Peck's country, Anadarko, OK 69.9 °F 63 °F 78% NW  at  3.0 mph 0.27 in / hr 1255 ft 10:10 PM CDT Normal

Show More Stations Show Fewer Stations

What do you think?

We're not finished. Please let us know what you like, what you don't like, and what you are still missing.